Time;durP1;ratioP1;P1;durP2;ratioP2;P2;SDS_P1;SDS_P2;PMS_P1;PMS_P2;Temp;Humidity;BMP_temperature;BMP_pressure;BME280_temperature;BME280_humidity;BME280_pressure;Samples;Min_cycle;Max_cycle;Signal;HPM_P1;HPM_P2
2024/02/14 00:00:01;;;;;;;2.10;1.90;;;0.50;99.90;;;;;;5054713;28;20032;-74
2024/02/14 00:02:26;;;;;;;1.83;1.35;;;0.60;99.90;;;;;;5055418;28;20025;-74
2024/02/14 00:04:53;;;;;;;4.03;1.73;;;0.60;99.90;;;;;;5055466;28;20025;-74
2024/02/14 00:07:19;;;;;;;5.97;1.70;;;0.50;99.90;;;;;;5055097;28;20052;-74
2024/02/14 00:09:45;;;;;;;3.15;2.17;;;0.50;99.90;;;;;;5054072;28;20029;-74
2024/02/14 00:12:11;;;;;;;7.72;2.08;;;0.40;99.90;;;;;;5055425;28;20059;-75
2024/02/14 00:14:37;;;;;;;3.03;2.40;;;0.30;99.90;;;;;;5055091;28;20028;-74
2024/02/14 00:17:03;;;;;;;8.13;1.92;;;0.30;99.90;;;;;;5054825;28;20100;-74
2024/02/14 00:19:29;;;;;;;5.40;2.38;;;0.50;99.90;;;;;;5054880;28;20104;-74
2024/02/14 00:21:55;;;;;;;2.90;1.80;;;0.40;99.90;;;;;;5054840;28;20100;-75
2024/02/14 00:24:20;;;;;;;1.92;1.52;;;0.40;99.90;;;;;;5054933;28;20514;-75
2024/02/14 00:26:46;;;;;;;2.28;2.08;;;0.40;99.90;;;;;;5054769;28;20108;-74
2024/02/14 00:29:12;;;;;;;4.82;1.80;;;0.40;99.90;;;;;;5054897;28;20033;-74
2024/02/14 00:31:37;;;;;;;3.55;2.15;;;0.40;99.90;;;;;;5052499;28;20072;-74
2024/02/14 00:34:03;;;;;;;4.47;2.22;;;0.40;99.90;;;;;;5053244;28;20483;-74
2024/02/14 00:36:29;;;;;;;3.13;1.75;;;0.30;99.90;;;;;;5053497;28;20029;-74
2024/02/14 00:38:55;;;;;;;3.05;2.10;;;0.30;99.90;;;;;;5054379;28;20537;-74
2024/02/14 00:41:21;;;;;;;2.40;1.60;;;0.30;99.90;;;;;;5053189;28;20075;-74
2024/02/14 00:43:46;;;;;;;2.85;1.42;;;0.30;99.90;;;;;;5054521;28;20059;-75
2024/02/14 00:46:19;;;;;;;4.40;2.20;;;0.20;99.90;;;;;;5053148;28;20032;-75
2024/02/14 00:48:44;;;;;;;4.57;2.00;;;0.20;99.90;;;;;;5052947;28;20021;-74
2024/02/14 00:51:11;;;;;;;6.18;2.38;;;0.20;99.90;;;;;;5054107;28;20479;-74
2024/02/14 00:53:36;;;;;;;3.25;1.95;;;0.10;99.90;;;;;;5053062;28;20036;-75
2024/02/14 00:56:02;;;;;;;3.20;2.05;;;0.10;99.90;;;;;;5054629;28;20032;-74
2024/02/14 00:58:28;;;;;;;4.75;2.10;;;0.10;99.90;;;;;;5040193;28;20033;-74
2024/02/14 01:00:53;;;;;;;5.38;2.50;;;0.10;99.90;;;;;;5034315;28;20025;-74
2024/02/14 01:03:19;;;;;;;2.20;2.00;;;0.00;99.90;;;;;;5034592;28;20022;-74
2024/02/14 01:05:45;;;;;;;4.97;2.45;;;0.00;99.90;;;;;;5033051;28;20602;-75
2024/02/14 01:08:11;;;;;;;3.60;2.00;;;0.00;99.90;;;;;;5033811;28;20032;-74
2024/02/14 01:10:36;;;;;;;4.13;1.90;;;0.00;99.90;;;;;;5033797;28;20028;-74
2024/02/14 01:13:02;;;;;;;10.15;2.63;;;0.10;99.90;;;;;;5034048;28;20573;-75
2024/02/14 01:15:28;;;;;;;7.50;2.67;;;0.10;99.90;;;;;;5032742;28;20084;-75
2024/02/14 01:17:53;;;;;;;2.55;1.65;;;0.00;99.90;;;;;;5032674;28;20087;-74
2024/02/14 01:20:20;;;;;;;3.13;2.05;;;0.10;99.90;;;;;;5032293;28;20029;-75
2024/02/14 01:22:46;;;;;;;6.85;1.58;;;0.10;99.90;;;;;;5034160;28;20022;-74
2024/02/14 01:25:12;;;;;;;6.32;2.28;;;0.00;99.90;;;;;;5034158;28;20021;-75
2024/02/14 01:27:39;;;;;;;4.18;2.28;;;0.10;99.90;;;;;;5032619;28;20024;-74
2024/02/14 01:30:05;;;;;;;3.45;2.05;;;0.20;99.90;;;;;;5032301;28;20029;-74
2024/02/14 01:32:31;;;;;;;3.42;1.75;;;0.10;99.90;;;;;;5033931;28;20036;-74
2024/02/14 01:34:57;;;;;;;4.20;1.75;;;0.00;99.90;;;;;;5033893;28;20108;-74
2024/02/14 01:37:23;;;;;;;3.70;1.65;;;0.00;99.90;;;;;;5032300;28;20466;-75
2024/02/14 01:39:48;;;;;;;5.22;2.55;;;0.00;99.90;;;;;;5033352;28;20056;-75
2024/02/14 01:42:14;;;;;;;4.85;1.83;;;0.10;99.90;;;;;;5032579;28;20055;-75
2024/02/14 01:44:40;;;;;;;3.53;2.13;;;-0.10;99.90;;;;;;5032337;28;20021;-75
2024/02/14 01:47:06;;;;;;;2.72;2.03;;;0.00;99.90;;;;;;5032995;28;20030;-74
2024/02/14 01:49:33;;;;;;;4.70;2.17;;;0.00;99.90;;;;;;5033335;28;20109;-75
2024/02/14 01:52:05;;;;;;;3.75;2.22;;;-0.10;99.90;;;;;;5033411;28;20018;-74
2024/02/14 01:54:31;;;;;;;4.32;2.17;;;0.00;99.90;;;;;;5032240;28;20591;-74
2024/02/14 01:57:00;;;;;;;4.60;2.15;;;0.00;99.90;;;;;;5032016;28;20051;-74
2024/02/14 01:59:26;;;;;;;4.05;1.83;;;0.00;99.90;;;;;;5031837;28;20503;-75
2024/02/14 02:01:52;;;;;;;3.55;1.35;;;-0.10;99.90;;;;;;5033570;28;20056;-75
2024/02/14 02:04:18;;;;;;;3.97;1.70;;;-0.10;99.90;;;;;;5033298;28;20021;-75
2024/02/14 02:06:44;;;;;;;3.33;1.90;;;-0.20;99.90;;;;;;5033887;28;20025;-75
2024/02/14 02:09:11;;;;;;;2.65;1.88;;;-0.10;99.90;;;;;;5033400;28;20049;-75
2024/02/14 02:11:48;;;;;;;5.07;1.58;;;-0.20;99.90;;;;;;5033151;28;20022;-75
2024/02/14 02:14:16;;;;;;;3.90;2.58;;;-0.20;99.90;;;;;;5033014;28;20021;-74
2024/02/14 02:16:42;;;;;;;2.75;1.40;;;-0.10;99.90;;;;;;5033094;28;20104;-74
2024/02/14 02:19:09;;;;;;;6.03;2.22;;;-0.10;99.90;;;;;;5031801;28;20018;-74
2024/02/14 02:21:35;;;;;;;4.18;1.90;;;-0.20;99.90;;;;;;5031437;28;20028;-74
2024/02/14 02:24:02;;;;;;;2.45;1.83;;;-0.20;99.90;;;;;;5032831;28;20021;-74
2024/02/14 02:26:27;;;;;;;2.78;1.63;;;-0.10;99.90;;;;;;5031365;28;20025;-75
2024/02/14 02:28:53;;;;;;;2.20;1.73;;;-0.20;99.90;;;;;;5032376;28;20048;-74
2024/02/14 02:31:20;;;;;;;4.22;2.25;;;-0.20;99.90;;;;;;5032271;28;20057;-75
2024/02/14 02:33:46;;;;;;;7.57;1.85;;;-0.30;99.90;;;;;;5032735;28;20075;-74
2024/02/14 02:36:11;;;;;;;3.83;2.05;;;-0.30;99.90;;;;;;5031439;28;20021;-74
2024/02/14 02:38:37;;;;;;;3.35;2.15;;;-0.30;99.90;;;;;;5032394;28;20451;-74
2024/02/14 02:41:06;;;;;;;3.53;2.10;;;-0.30;99.90;;;;;;5031027;28;20025;-74
2024/02/14 02:43:32;;;;;;;2.90;2.05;;;-0.40;99.90;;;;;;5032795;28;20514;-74
2024/02/14 02:45:58;;;;;;;1.75;1.52;;;-0.40;99.90;;;;;;5032651;28;20377;-74
2024/02/14 02:48:24;;;;;;;2.45;1.42;;;-0.40;99.90;;;;;;5032542;28;20028;-74
2024/02/14 02:50:50;;;;;;;3.47;1.38;;;-0.40;99.90;;;;;;5030905;28;20040;-75
2024/02/14 02:53:16;;;;;;;2.28;1.58;;;-0.40;99.90;;;;;;5032033;28;20022;-75
2024/02/14 02:55:43;;;;;;;2.58;1.85;;;-0.50;99.90;;;;;;5031377;28;20037;-75
2024/02/14 02:58:08;;;;;;;2.25;1.40;;;-0.50;99.90;;;;;;5032360;28;20047;-75
2024/02/14 03:00:34;;;;;;;2.40;1.30;;;-0.50;99.90;;;;;;5032305;28;20130;-75
2024/02/14 03:03:00;;;;;;;2.35;2.05;;;-0.50;99.90;;;;;;5032151;28;20127;-74
2024/02/14 03:05:27;;;;;;;5.13;1.73;;;-0.50;99.90;;;;;;5032321;28;20037;-74
2024/02/14 03:07:52;;;;;;;2.47;1.70;;;-0.50;99.90;;;;;;5032068;28;20026;-74
2024/02/14 03:10:19;;;;;;;6.88;1.67;;;-0.50;99.90;;;;;;5030748;28;20026;-74
2024/02/14 03:12:47;;;;;;;5.47;1.75;;;-0.50;99.90;;;;;;5031250;28;20057;-75
2024/02/14 03:15:13;;;;;;;2.95;1.55;;;-0.50;99.90;;;;;;5032408;28;20036;-75
2024/02/14 03:17:39;;;;;;;2.50;2.05;;;-0.50;99.90;;;;;;5031164;28;20443;-74
2024/02/14 03:20:14;;;;;;;3.70;1.98;;;-0.50;99.90;;;;;;5031830;28;20056;-74
2024/02/14 03:22:46;;;;;;;10.70;2.83;;;-0.50;99.90;;;;;;5032464;28;20028;-74
2024/02/14 03:25:21;;;;;;;2.58;1.88;;;-0.50;99.90;;;;;;5032296;28;20105;-74
2024/02/14 03:27:51;;;;;;;2.35;2.03;;;-0.50;99.90;;;;;;5032030;28;20497;-75
2024/02/14 03:30:16;;;;;;;3.50;2.10;;;-0.50;99.90;;;;;;5032153;28;20025;-74
2024/02/14 03:32:43;;;;;;;5.32;1.52;;;-0.60;99.90;;;;;;5032249;28;20514;-74
2024/02/14 03:35:10;;;;;;;3.88;1.48;;;-0.50;99.90;;;;;;5032141;28;20029;-73
2024/02/14 03:37:39;;;;;;;2.78;1.65;;;-0.50;99.90;;;;;;5031795;28;20076;-74
2024/02/14 03:40:06;;;;;;;3.80;2.80;;;-0.50;99.90;;;;;;5031975;28;20022;-74
2024/02/14 03:42:32;;;;;;;10.27;3.10;;;-0.60;99.90;;;;;;5030717;28;20028;-74
2024/02/14 03:45:02;;;;;;;3.40;2.60;;;-0.70;99.90;;;;;;5031691;28;20021;-73
2024/02/14 03:47:33;;;;;;;6.63;2.63;;;-0.60;99.90;;;;;;5031755;28;20164;-75
2024/02/14 03:49:59;;;;;;;3.17;2.20;;;-0.70;99.90;;;;;;5030557;28;20108;-74
2024/02/14 03:52:26;;;;;;;3.20;1.73;;;-0.70;99.90;;;;;;5030687;28;20049;-75
2024/02/14 03:54:52;;;;;;;3.47;2.22;;;-0.70;99.90;;;;;;5030317;28;20022;-74
2024/02/14 03:57:17;;;;;;;2.70;2.08;;;-0.70;99.90;;;;;;5030721;28;20040;-74
2024/02/14 03:59:46;;;;;;;2.22;1.85;;;-0.60;99.90;;;;;;5031595;28;20396;-74
2024/02/14 04:02:13;;;;;;;2.42;1.63;;;-0.70;99.90;;;;;;5031788;28;20119;-74
2024/02/14 04:04:41;;;;;;;2.35;1.50;;;-0.70;99.90;;;;;;5030919;28;20476;-73
2024/02/14 04:07:09;;;;;;;4.13;1.35;;;-0.80;99.90;;;;;;5035461;28;20627;-75
2024/02/14 04:09:35;;;;;;;1.90;1.48;;;-0.70;99.90;;;;;;5035169;28;20021;-75
2024/02/14 04:12:01;;;;;;;5.90;2.13;;;-0.80;99.90;;;;;;5034962;28;20017;-74
2024/02/14 04:14:26;;;;;;;2.35;1.70;;;-0.80;99.90;;;;;;5034054;28;20442;-75
2024/02/14 04:16:52;;;;;;;1.10;1.10;;;-0.80;99.90;;;;;;5035083;28;20029;-74
2024/02/14 04:19:18;;;;;;;1.85;1.23;;;-0.80;99.90;;;;;;5035039;28;20026;-75
2024/02/14 04:21:44;;;;;;;1.38;1.33;;;-0.80;99.90;;;;;;5034771;28;20533;-74
2024/02/14 04:24:10;;;;;;;2.33;1.40;;;-0.80;99.90;;;;;;5034854;28;20045;-74
2024/02/14 04:26:35;;;;;;;2.45;1.40;;;-0.80;99.90;;;;;;5034988;28;20400;-75
2024/02/14 04:29:01;;;;;;;2.97;1.73;;;-0.80;99.90;;;;;;5034845;28;20518;-74
2024/02/14 04:31:29;;;;;;;9.73;1.80;;;-0.80;99.90;;;;;;5034686;28;20097;-75
2024/02/14 04:33:55;;;;;;;2.33;1.73;;;-0.70;99.90;;;;;;5034825;28;20017;-74
2024/02/14 04:36:22;;;;;;;8.40;2.65;;;-0.70;99.90;;;;;;5033565;28;20021;-74
2024/02/14 04:38:49;;;;;;;3.00;1.73;;;-0.70;99.90;;;;;;5033343;28;20040;-74
2024/02/14 04:41:15;;;;;;;4.47;1.80;;;-0.70;99.90;;;;;;5034473;28;20108;-74
2024/02/14 04:43:41;;;;;;;5.55;1.33;;;-0.80;99.90;;;;;;5034302;28;20484;-73
2024/02/14 04:46:08;;;;;;;2.13;1.17;;;-0.80;99.90;;;;;;5034392;28;20026;-74
2024/02/14 04:48:37;;;;;;;2.17;1.60;;;-0.80;99.90;;;;;;5033384;28;20030;-75
2024/02/14 04:51:04;;;;;;;3.65;2.33;;;-0.90;99.90;;;;;;5034639;28;20025;-73
2024/02/14 04:53:30;;;;;;;5.97;1.85;;;-0.90;99.90;;;;;;5032985;28;20500;-74
2024/02/14 04:55:56;;;;;;;3.22;1.80;;;-0.80;99.90;;;;;;5033139;28;20057;-75
2024/02/14 04:58:22;;;;;;;4.68;1.80;;;-0.90;99.90;;;;;;5033194;28;20060;-74
2024/02/14 05:00:48;;;;;;;2.60;1.70;;;-0.90;99.90;;;;;;5033985;28;20017;-75
2024/02/14 05:03:13;;;;;;;6.13;1.73;;;-0.90;99.90;;;;;;5034764;28;20083;-75
2024/02/14 05:05:39;;;;;;;1.70;1.60;;;-0.90;99.90;;;;;;5034090;28;20021;-74
2024/02/14 05:08:05;;;;;;;5.70;2.15;;;-0.90;99.90;;;;;;5033923;28;20071;-74
2024/02/14 05:10:31;;;;;;;10.90;3.85;;;-1.00;99.90;;;;;;5033675;28;20083;-75
2024/02/14 05:12:57;;;;;;;7.85;4.03;;;-1.00;99.90;;;;;;5033001;28;20026;-74
2024/02/14 05:15:23;;;;;;;15.48;3.50;;;-1.10;99.90;;;;;;5033973;28;20399;-76
2024/02/14 05:17:49;;;;;;;4.88;2.20;;;-1.10;99.90;;;;;;5032403;28;20029;-75
2024/02/14 05:20:16;;;;;;;5.93;2.80;;;-1.10;99.90;;;;;;5033654;28;20026;-74
2024/02/14 05:22:42;;;;;;;11.43;2.85;;;-1.10;99.90;;;;;;5034167;28;20022;-74
2024/02/14 05:25:09;;;;;;;4.30;2.75;;;-1.20;99.90;;;;;;5032652;28;20044;-74
2024/02/14 05:27:35;;;;;;;5.07;2.10;;;-1.20;99.90;;;;;;5033983;28;20144;-75
2024/02/14 05:30:05;;;;;;;2.28;2.08;;;-1.20;99.90;;;;;;5032362;28;20030;-75
2024/02/14 05:32:33;;;;;;;3.15;2.28;;;-1.20;99.90;;;;;;5032497;28;20104;-75
2024/02/14 05:34:59;;;;;;;4.80;1.88;;;-1.20;99.90;;;;;;5032441;28;20025;-75
2024/02/14 05:37:28;;;;;;;2.63;1.83;;;-1.20;99.90;;;;;;5032096;28;20094;-75
2024/02/14 05:39:54;;;;;;;2.25;1.60;;;-1.20;99.90;;;;;;5031801;28;20023;-75
2024/02/14 05:42:21;;;;;;;9.38;2.00;;;-1.20;99.90;;;;;;5033647;28;20632;-74
2024/02/14 05:44:47;;;;;;;3.65;1.80;;;-1.20;99.90;;;;;;5033175;28;20017;-74
2024/02/14 05:47:12;;;;;;;5.18;1.90;;;-1.20;99.90;;;;;;5031934;28;20035;-74
2024/02/14 05:49:39;;;;;;;2.38;2.08;;;-1.30;99.90;;;;;;5032046;28;20055;-74
2024/02/14 05:52:06;;;;;;;2.92;1.75;;;-1.30;99.90;;;;;;5033151;28;20034;-75
2024/02/14 05:54:31;;;;;;;2.97;1.77;;;-1.20;99.90;;;;;;5032022;28;20060;-75
2024/02/14 05:56:57;;;;;;;5.47;2.13;;;-1.20;99.90;;;;;;5031810;28;20029;-75
2024/02/14 05:59:23;;;;;;;10.95;2.53;;;-1.20;99.90;;;;;;5031490;28;20033;-75
2024/02/14 06:01:49;;;;;;;5.28;2.20;;;-1.20;99.90;;;;;;5031717;28;20029;-75
2024/02/14 06:04:14;;;;;;;2.80;2.17;;;-1.10;99.90;;;;;;5032030;28;20052;-75
2024/02/14 06:06:40;;;;;;;2.53;2.25;;;-1.20;99.90;;;;;;5033329;28;20026;-74
2024/02/14 06:09:09;;;;;;;9.25;2.58;;;-1.20;99.90;;;;;;5033600;28;20025;-74
2024/02/14 06:11:38;;;;;;;5.25;2.65;;;-1.20;99.90;;;;;;5033020;28;20534;-74
2024/02/14 06:14:05;;;;;;;6.30;2.17;;;-1.30;99.90;;;;;;5031668;28;20030;-74
2024/02/14 06:16:30;;;;;;;3.25;1.92;;;-1.30;99.90;;;;;;5033936;28;20544;-75
2024/02/14 06:18:56;;;;;;;4.22;2.58;;;-1.30;99.90;;;;;;5033769;28;20057;-74
2024/02/14 06:21:22;;;;;;;9.00;2.13;;;0.30;99.90;;;;;;5032791;28;20036;-74
2024/02/14 06:23:47;;;;;;;3.40;2.33;;;-0.50;99.90;;;;;;5033449;28;20057;-75
2024/02/14 06:26:14;;;;;;;3.50;1.80;;;-0.70;99.90;;;;;;5033372;28;20128;-74
2024/02/14 06:28:39;;;;;;;4.38;2.05;;;-0.90;99.90;;;;;;5034266;28;20025;-74
2024/02/14 06:31:05;;;;;;;2.90;1.70;;;-0.90;99.90;;;;;;5032981;28;20026;-74
2024/02/14 06:33:31;;;;;;;2.50;1.50;;;-0.90;99.90;;;;;;5033029;28;20032;-74
2024/02/14 06:35:56;;;;;;;3.17;2.10;;;-1.00;99.90;;;;;;5033267;28;20021;-75
2024/02/14 06:38:22;;;;;;;11.57;2.45;;;-1.00;99.90;;;;;;5033108;28;20099;-75
2024/02/14 06:40:48;;;;;;;9.25;2.42;;;-0.90;99.90;;;;;;5032622;28;20101;-73
2024/02/14 06:43:13;;;;;;;4.90;2.40;;;-0.80;99.90;;;;;;5031214;28;20028;-76
2024/02/14 06:45:39;;;;;;;2.53;2.33;;;-0.80;99.90;;;;;;5032768;28;20099;-74
2024/02/14 06:48:05;;;;;;;5.95;2.30;;;-0.70;99.90;;;;;;5032262;28;20022;-74
2024/02/14 06:50:32;;;;;;;4.97;2.47;;;-0.80;99.90;;;;;;5032403;28;20044;-75
2024/02/14 06:52:59;;;;;;;7.43;1.98;;;-0.80;99.90;;;;;;5032505;28;20044;-76
2024/02/14 06:55:26;;;;;;;1.80;1.70;;;-0.80;99.90;;;;;;5032595;28;20026;-74
2024/02/14 06:57:52;;;;;;;12.07;2.05;;;-0.70;99.90;;;;;;5030979;28;20026;-75
2024/02/14 07:00:18;;;;;;;2.92;1.92;;;-0.70;99.90;;;;;;5034583;28;20423;-74
2024/02/14 07:02:47;;;;;;;5.13;2.55;;;-0.70;99.90;;;;;;5052119;28;20063;-75
2024/02/14 07:05:14;;;;;;;2.88;2.13;;;-0.60;99.90;;;;;;5051037;28;20017;-74
2024/02/14 07:07:41;;;;;;;4.35;2.70;;;-0.60;99.90;;;;;;5052408;28;20102;-74
2024/02/14 07:10:07;;;;;;;5.85;2.22;;;-0.50;99.90;;;;;;5050995;28;20067;-74
2024/02/14 07:12:33;;;;;;;3.45;2.58;;;-0.40;99.90;;;;;;5051305;28;20506;-73
2024/02/14 07:14:59;;;;;;;9.20;2.85;;;-0.40;99.90;;;;;;5052094;28;20025;-75
2024/02/14 07:17:24;;;;;;;10.93;2.40;;;-0.30;99.90;;;;;;5052251;28;20029;-74
2024/02/14 07:19:50;;;;;;;3.58;2.08;;;-0.20;99.90;;;;;;5050428;28;20021;-74
2024/02/14 07:22:18;;;;;;;7.30;2.00;;;-0.10;99.90;;;;;;5051997;28;20025;-74
2024/02/14 07:24:45;;;;;;;2.92;2.13;;;0.00;99.90;;;;;;5051008;28;20024;-75
2024/02/14 07:27:12;;;;;;;2.88;2.30;;;0.10;99.90;;;;;;5052731;28;20495;-75
2024/02/14 07:29:38;;;;;;;3.50;2.50;;;0.20;99.90;;;;;;5052326;28;20029;-76
2024/02/14 07:32:04;;;;;;;8.15;2.85;;;0.20;99.90;;;;;;5052259;28;20036;-74
2024/02/14 07:34:29;;;;;;;6.32;3.08;;;0.30;99.90;;;;;;5050365;28;20055;-74
2024/02/14 07:36:55;;;;;;;9.82;4.07;;;0.40;99.90;;;;;;5050438;28;20120;-74
2024/02/14 07:39:21;;;;;;;13.60;5.43;;;0.50;99.90;;;;;;5050930;28;20509;-74
2024/02/14 07:41:46;;;;;;;8.98;4.95;;;0.60;99.90;;;;;;5055546;28;20025;-75
2024/02/14 07:44:13;;;;;;;14.02;6.28;;;0.60;99.90;;;;;;5054712;28;20021;-74
2024/02/14 07:46:38;;;;;;;12.88;5.25;;;0.90;99.90;;;;;;5055554;28;20017;-74
2024/02/14 07:49:04;;;;;;;25.13;8.35;;;0.90;99.90;;;;;;5055544;28;20017;-74
2024/02/14 07:51:36;;;;;;;9.02;5.30;;;0.90;99.90;;;;;;5055460;28;20490;-74
2024/02/14 07:54:05;;;;;;;9.15;4.25;;;1.00;99.90;;;;;;5055542;28;20063;-75
2024/02/14 07:56:31;;;;;;;13.70;5.88;;;1.00;99.90;;;;;;5055411;28;20021;-74
2024/02/14 07:58:57;;;;;;;10.40;5.57;;;1.30;99.90;;;;;;5055477;28;20040;-77
2024/02/14 08:01:22;;;;;;;7.28;4.18;;;1.20;99.90;;;;;;5055428;28;20454;-77
2024/02/14 08:03:48;;;;;;;7.90;3.95;;;1.40;99.90;;;;;;5055296;28;20108;-76
2024/02/14 08:06:14;;;;;;;7.72;4.95;;;1.50;99.90;;;;;;5053782;28;20032;-77
2024/02/14 08:08:40;;;;;;;10.50;4.15;;;1.50;99.90;;;;;;5053485;28;20022;-76
2024/02/14 08:11:05;;;;;;;9.02;4.18;;;1.60;99.90;;;;;;5053401;28;20524;-77
2024/02/14 08:13:32;;;;;;;4.72;2.97;;;2.30;99.90;;;;;;5055071;28;20104;-77
2024/02/14 08:15:58;;;;;;;8.32;3.25;;;2.20;99.90;;;;;;5053470;28;20032;-77
2024/02/14 08:18:24;;;;;;;6.13;2.40;;;2.20;99.90;;;;;;5055099;28;20021;-77
2024/02/14 08:20:50;;;;;;;4.25;2.33;;;2.20;99.90;;;;;;5053661;28;20071;-77
2024/02/14 08:23:17;;;;;;;5.68;2.38;;;2.40;99.90;;;;;;5054762;28;20479;-76
2024/02/14 08:25:42;;;;;;;5.30;2.38;;;2.40;99.90;;;;;;5053347;28;20059;-77
2024/02/14 08:28:09;;;;;;;5.32;2.20;;;2.40;99.90;;;;;;5053244;28;20056;-77
2024/02/14 08:30:34;;;;;;;4.05;2.65;;;2.60;99.90;;;;;;5054006;28;20033;-76
2024/02/14 08:33:00;;;;;;;7.65;2.42;;;2.70;99.90;;;;;;5054308;28;20029;-77
2024/02/14 08:35:26;;;;;;;2.97;1.80;;;2.70;99.90;;;;;;5053047;28;20043;-77
2024/02/14 08:37:51;;;;;;;6.10;2.28;;;2.80;99.90;;;;;;5052932;28;20119;-77
2024/02/14 08:40:17;;;;;;;3.35;2.40;;;2.90;99.90;;;;;;5052756;28;20052;-77
2024/02/14 08:42:43;;;;;;;5.97;2.70;;;3.00;99.90;;;;;;5054296;28;20025;-77
2024/02/14 08:45:10;;;;;;;9.50;2.00;;;3.30;99.90;;;;;;5052854;28;20029;-77
2024/02/14 08:47:36;;;;;;;3.95;2.40;;;3.40;99.90;;;;;;5052472;28;20061;-77
2024/02/14 08:50:03;;;;;;;3.85;2.42;;;3.40;99.90;;;;;;5053942;28;20021;-76
2024/02/14 08:52:29;;;;;;;5.22;2.83;;;3.50;99.90;;;;;;5053085;28;20037;-76
2024/02/14 08:54:54;;;;;;;11.38;2.55;;;3.60;99.90;;;;;;5053711;28;20021;-78
2024/02/14 08:57:20;;;;;;;7.07;1.67;;;3.80;99.90;;;;;;5054094;28;20496;-77
2024/02/14 08:59:49;;;;;;;5.75;2.05;;;3.90;99.90;;;;;;5053564;28;20025;-76
2024/02/14 09:02:16;;;;;;;3.92;1.50;;;4.00;99.90;;;;;;5052590;28;20506;-76
2024/02/14 09:04:42;;;;;;;2.40;1.65;;;4.20;99.90;;;;;;5052841;28;20025;-76
2024/02/14 09:07:08;;;;;;;5.88;1.88;;;4.30;99.90;;;;;;5053923;28;20443;-76
2024/02/14 09:09:33;;;;;;;4.20;2.00;;;4.50;99.90;;;;;;5053812;28;20032;-77
2024/02/14 09:12:02;;;;;;;4.07;2.15;;;4.80;99.90;;;;;;5053867;28;20445;-77
2024/02/14 09:14:31;;;;;;;5.25;2.03;;;4.90;99.90;;;;;;5053881;28;20095;-77
2024/02/14 09:16:57;;;;;;;2.53;2.03;;;5.00;99.90;;;;;;5052497;28;20490;-76
2024/02/14 09:19:25;;;;;;;9.68;1.88;;;5.10;99.90;;;;;;5053393;28;20040;-76
2024/02/14 09:21:50;;;;;;;5.30;2.17;;;5.20;99.90;;;;;;5052146;28;20586;-77
2024/02/14 09:24:16;;;;;;;2.60;1.45;;;5.40;99.90;;;;;;5054321;28;20053;-75
2024/02/14 09:26:42;;;;;;;6.45;2.97;;;5.60;99.90;;;;;;5053463;28;20021;-75
2024/02/14 09:29:10;;;;;;;8.07;3.22;;;5.90;99.90;;;;;;5053597;28;20032;-75
2024/02/14 09:31:36;;;;;;;11.98;5.45;;;5.90;99.90;;;;;;5051901;28;20113;-77
2024/02/14 09:34:02;;;;;;;5.45;3.03;;;5.90;99.90;;;;;;5051857;28;20060;-75
2024/02/14 09:36:28;;;;;;;5.18;2.10;;;6.00;99.90;;;;;;5052060;28;20506;-76
2024/02/14 09:38:55;;;;;;;7.63;3.10;;;6.00;99.90;;;;;;5053341;28;20052;-76
2024/02/14 09:41:39;;;;;;;25.02;7.35;;;6.00;99.90;;;;;;5053095;28;20078;-76
2024/02/14 09:44:05;;;;;;;69.13;22.25;;;6.00;99.90;;;;;;5053264;28;20017;-76
2024/02/14 09:46:31;;;;;;;30.98;14.50;;;6.20;99.90;;;;;;5051840;28;20025;-75
2024/02/14 09:48:59;;;;;;;23.63;11.13;;;6.20;99.90;;;;;;5052931;28;20100;-76
2024/02/14 09:51:25;;;;;;;27.02;10.57;;;6.40;99.90;;;;;;5052841;28;20021;-74
2024/02/14 09:53:54;;;;;;;12.65;5.63;;;6.50;99.90;;;;;;5052981;28;20487;-74
2024/02/14 09:56:22;;;;;;;14.63;5.97;;;7.80;99.90;;;;;;5052640;28;20106;-76
2024/02/14 09:59:00;;;;;;;10.70;5.50;;;8.50;99.90;;;;;;5052824;28;20025;-75
2024/02/14 10:01:26;;;;;;;11.63;5.88;;;8.80;99.50;;;;;;5052748;28;20021;-75
2024/02/14 10:03:53;;;;;;;13.05;5.40;;;8.60;96.00;;;;;;5052044;28;20074;-76
2024/02/14 10:06:22;;;;;;;25.27;7.72;;;8.40;94.90;;;;;;5052656;28;20025;-75
2024/02/14 10:08:51;;;;;;;9.90;3.92;;;8.20;94.10;;;;;;5051376;28;20118;-77
2024/02/14 10:11:21;;;;;;;5.68;2.30;;;8.10;92.90;;;;;;5051173;28;20052;-75
2024/02/14 10:13:47;;;;;;;8.90;4.30;;;8.00;93.10;;;;;;5053382;28;20013;-75
2024/02/14 10:16:14;;;;;;;4.57;2.85;;;8.00;93.30;;;;;;5052717;28;20108;-75
2024/02/14 10:18:40;;;;;;;11.02;4.25;;;8.10;93.20;;;;;;5049477;28;20435;-73
2024/02/14 10:21:08;;;;;;;8.48;3.72;;;8.20;93.30;;;;;;5031103;28;20065;-76
2024/02/14 10:23:34;;;;;;;10.23;4.22;;;8.30;92.90;;;;;;5032698;28;20101;-76
2024/02/14 10:25:59;;;;;;;1.98;1.42;;;8.50;92.30;;;;;;5031308;28;20110;-76
2024/02/14 10:28:25;;;;;;;4.93;1.80;;;8.60;91.90;;;;;;5032548;28;20022;-76
2024/02/14 10:30:54;;;;;;;8.23;4.05;;;8.60;91.90;;;;;;5031363;28;20025;-75
2024/02/14 10:33:20;;;;;;;5.38;2.40;;;8.80;92.30;;;;;;5031163;28;20137;-75
2024/02/14 10:35:47;;;;;;;5.43;3.60;;;9.00;90.90;;;;;;5031684;28;20531;-75
2024/02/14 10:38:16;;;;;;;1.90;1.50;;;9.10;91.00;;;;;;5030762;28;20087;-75
2024/02/14 10:40:42;;;;;;;3.78;1.52;;;9.20;90.80;;;;;;5030935;28;20052;-74
2024/02/14 10:43:11;;;;;;;3.20;0.85;;;9.20;90.00;;;;;;5031258;28;20026;-76
2024/02/14 10:45:37;;;;;;;2.88;1.65;;;9.30;90.00;;;;;;5031093;28;20112;-75
2024/02/14 10:48:06;;;;;;;3.08;1.92;;;9.30;86.70;;;;;;5031247;28;20440;-76
2024/02/14 10:50:36;;;;;;;2.45;1.50;;;9.30;88.40;;;;;;5032347;28;20490;-75
2024/02/14 10:53:06;;;;;;;2.30;1.10;;;9.50;85.50;;;;;;5032140;28;20030;-75
2024/02/14 10:55:33;;;;;;;1.63;1.13;;;9.60;82.60;;;;;;5032528;28;20377;-75
2024/02/14 10:58:00;;;;;;;2.80;1.48;;;9.70;81.30;;;;;;5032275;28;20045;-75
2024/02/14 11:00:26;;;;;;;1.65;1.38;;;9.80;80.30;;;;;;5032048;28;20025;-76
2024/02/14 11:02:53;;;;;;;1.33;0.80;;;9.90;78.30;;;;;;5032399;28;20045;-75
2024/02/14 11:05:23;;;;;;;3.67;0.85;;;10.00;73.50;;;;;;5031168;28;20480;-75
2024/02/14 11:07:52;;;;;;;1.40;0.70;;;10.10;74.70;;;;;;5032659;28;20156;-74
2024/02/14 11:10:18;;;;;;;9.68;3.67;;;10.20;64.10;;;;;;5032330;28;20101;-75
2024/02/14 11:12:47;;;;;;;6.10;3.05;;;10.40;66.10;;;;;;5031375;28;20025;-74
2024/02/14 11:15:19;;;;;;;0.95;0.65;;;10.60;63.90;;;;;;5035135;28;20032;-75
2024/02/14 11:17:45;;;;;;;1.42;0.80;;;10.70;62.80;;;;;;5036229;28;20507;-75
2024/02/14 11:20:21;;;;;;;1.15;0.43;;;10.90;61.70;;;;;;5036162;28;20083;-75
2024/02/14 11:23:10;;;;;;;10.75;4.32;;;11.10;58.40;;;;;;5036553;28;20021;-74
2024/02/14 11:25:37;;;;;;;6.05;2.25;;;11.10;56.10;;;;;;5036962;28;20511;-74
2024/02/14 11:28:16;;;;;;;7.47;3.30;;;11.00;56.20;;;;;;5036775;28;20435;-75
2024/02/14 11:30:43;;;;;;;0.68;0.60;;;11.00;56.50;;;;;;5035983;28;20033;-76
2024/02/14 11:33:20;;;;;;;0.52;0.38;;;11.20;55.20;;;;;;5035096;28;20029;-74
2024/02/14 11:35:53;;;;;;;0.98;0.40;;;11.20;55.00;;;;;;5035235;28;20063;-74
2024/02/14 11:38:20;;;;;;;3.35;2.42;;;11.40;53.90;;;;;;5035238;28;20448;-75
2024/02/14 11:40:46;;;;;;;10.88;4.68;;;11.40;54.30;;;;;;5034703;28;20026;-75
2024/02/14 11:43:17;;;;;;;11.48;7.18;;;11.30;53.20;;;;;;5036401;28;20021;-74
2024/02/14 11:45:45;;;;;;;7.07;2.35;;;11.40;55.60;;;;;;5034775;28;20029;-74
2024/02/14 11:48:14;;;;;;;5.70;2.13;;;11.50;54.20;;;;;;5036270;28;20021;-73
2024/02/14 11:50:41;;;;;;;8.30;2.33;;;11.50;55.60;;;;;;5036481;28;20026;-74
2024/02/14 11:53:11;;;;;;;5.55;0.95;;;11.50;54.70;;;;;;5037056;28;20029;-73
2024/02/14 11:55:41;;;;;;;1.55;0.47;;;11.50;53.70;;;;;;5036684;28;20021;-74
2024/02/14 11:58:11;;;;;;;1.25;0.70;;;11.60;51.50;;;;;;5036454;28;20488;-73
2024/02/14 12:00:44;;;;;;;4.28;0.82;;;11.50;51.50;;;;;;5034758;28;20068;-74
2024/02/14 12:03:15;;;;;;;2.22;1.33;;;11.50;52.60;;;;;;5035027;28;20021;-74
2024/02/14 12:05:43;;;;;;;3.13;1.75;;;11.50;50.40;;;;;;5036332;28;20022;-74
2024/02/14 12:08:09;;;;;;;1.75;0.82;;;11.50;50.70;;;;;;5034718;28;20041;-73
2024/02/14 12:10:37;;;;;;;4.30;2.03;;;11.60;50.90;;;;;;5036004;28;20040;-74
2024/02/14 12:13:17;;;;;;;6.18;2.53;;;11.50;52.20;;;;;;5034778;28;20029;-75
2024/02/14 12:15:47;;;;;;;2.28;0.88;;;11.70;67.10;;;;;;5034888;28;20025;-74
2024/02/14 12:18:14;;;;;;;3.85;2.40;;;12.30;64.40;;;;;;5035955;28;20030;-74
2024/02/14 12:20:40;;;;;;;3.35;1.35;;;12.20;52.90;;;;;;5034067;28;20561;-76
2024/02/14 12:23:06;;;;;;;4.00;1.90;;;12.20;51.90;;;;;;5035347;28;20029;-75
2024/02/14 12:25:33;;;;;;;3.33;1.50;;;12.10;50.90;;;;;;5033447;28;20041;-75
2024/02/14 12:28:00;;;;;;;1.25;1.15;;;12.10;52.80;;;;;;5035850;28;20097;-77
2024/02/14 12:30:51;;;;;;;7.13;3.40;;;12.20;52.30;;;;;;5035261;28;20021;-75
2024/02/14 12:33:17;;;;;;;0.90;0.70;;;12.10;51.50;;;;;;5033371;28;20061;-76
2024/02/14 12:35:45;;;;;;;0.82;0.50;;;12.20;49.40;;;;;;5034924;28;20054;-75
2024/02/14 12:38:12;;;;;;;0.35;0.35;;;12.20;48.30;;;;;;5033186;28;20041;-76
2024/02/14 12:40:38;;;;;;;8.90;4.07;;;12.20;46.50;;;;;;5034376;28;20052;-75
2024/02/14 12:43:05;;;;;;;4.35;2.33;;;12.20;47.50;;;;;;5034733;28;20033;-79
2024/02/14 12:45:31;;;;;;;4.45;2.35;;;12.20;47.90;;;;;;5034632;28;20013;-76
2024/02/14 12:47:57;;;;;;;8.43;4.20;;;12.20;48.50;;;;;;5033401;28;20089;-76